< < Back
Terminal Aerodrome Forecast


Current Version              Previous Versions:   1  2  3  4  5  6  7  8  9  

Terminal Aerodrome Forecast

314
FTUS42 KGSP 270804 AAB
TAFGSP
TAF AMD
KGSP 270804Z 2708/2806 35005KT P6SM VCSH OVC030
     FM271000 36007KT 5SM -SHRA BR OVC020
     FM271300 36010KT P6SM OVC020
     FM271900 01006KT P6SM OVC050
     FM280000 33006KT P6SM OVC050=



Latest METAR

189
SAUS70 KWBC 271000
MTRGSP
METAR KGSP 270953Z 36005KT 10SM FEW021 BKN090 OVC110 13/07 A2966 RMK AO2
SLP037 T01280067


USA.gov is the U.S. government's official web portal to all federal, state and local government web resources and services.